createdAt,value
2023-05-17T00:00:19.667Z,4
2023-05-17T00:05:19.743Z,3
2023-05-17T00:10:19.679Z,4
2023-05-17T00:15:16.718Z,3
2023-05-17T00:20:19.721Z,4
2023-05-17T00:25:19.725Z,4
2023-05-17T00:30:19.736Z,4
2023-05-17T00:35:19.667Z,2
2023-05-17T00:40:19.683Z,3
2023-05-17T00:45:19.692Z,3
2023-05-17T00:50:16.766Z,3
2023-05-17T00:55:16.802Z,2
2023-05-17T01:00:16.771Z,4
2023-05-17T01:05:16.807Z,3
2023-05-17T01:10:16.773Z,3
2023-05-17T01:15:16.737Z,3
2023-05-17T01:20:19.776Z,3
2023-05-17T01:25:19.718Z,3
2023-05-17T01:30:19.788Z,2
2023-05-17T01:35:19.680Z,2
2023-05-17T01:40:19.696Z,3
2023-05-17T01:45:19.742Z,3
2023-05-17T01:50:16.721Z,2
2023-05-17T01:55:16.598Z,2
2023-05-17T02:00:19.781Z,1
2023-05-17T02:05:19.810Z,1
2023-05-17T02:10:16.905Z,2
2023-05-17T02:15:16.826Z,1
2023-05-17T02:20:16.754Z,1
2023-05-17T02:25:19.746Z,1
2023-05-17T02:30:18.153Z,1
2023-05-17T02:35:19.719Z,1
2023-05-17T02:40:19.780Z,1
2023-05-17T02:45:19.754Z,1
2023-05-17T02:50:19.768Z,1
2023-05-17T02:55:19.730Z,2
2023-05-17T03:00:19.848Z,1
2023-05-17T03:05:19.757Z,1
2023-05-17T03:10:19.737Z,1
2023-05-17T03:15:16.608Z,1
2023-05-17T03:20:19.780Z,2
2023-05-17T03:25:16.843Z,2
2023-05-17T03:30:16.795Z,1
2023-05-17T03:35:16.862Z,1
2023-05-17T03:40:16.811Z,1
2023-05-17T03:45:16.814Z,1
2023-05-17T03:50:16.799Z,1
2023-05-17T03:55:16.827Z,1
2023-05-17T04:00:16.050Z,1
2023-05-17T04:05:16.241Z,2
2023-05-17T04:10:16.077Z,2
2023-05-17T04:15:16.180Z,2
2023-05-17T04:20:16.115Z,2
2023-05-17T04:25:16.121Z,5
2023-05-17T04:30:19.086Z,6
2023-05-17T04:35:19.069Z,7
2023-05-17T04:40:16.059Z,5
2023-05-17T04:45:19.136Z,4
2023-05-17T04:50:16.105Z,5
2023-05-17T04:55:16.120Z,4
2023-05-17T05:00:16.108Z,5
2023-05-17T05:05:16.093Z,3
2023-05-17T05:10:16.142Z,5
2023-05-17T05:15:16.130Z,4
2023-05-17T05:20:19.090Z,4
2023-05-17T05:25:16.128Z,5
2023-05-17T05:30:16.125Z,6
2023-05-17T05:35:19.137Z,7
2023-05-17T05:40:16.122Z,5
2023-05-17T05:45:19.096Z,5
2023-05-17T05:50:16.122Z,5
2023-05-17T05:55:19.201Z,3
2023-05-17T06:00:19.552Z,5
2023-05-17T06:05:19.091Z,4
2023-05-17T06:10:19.080Z,5
2023-05-17T06:15:16.114Z,4
2023-05-17T06:20:16.137Z,3
2023-05-17T06:25:16.147Z,5
2023-05-17T06:30:16.099Z,5
2023-05-17T06:35:16.123Z,4
2023-05-17T06:40:19.141Z,4
2023-05-17T06:45:19.124Z,4
2023-05-17T06:50:16.141Z,4
2023-05-17T06:55:19.123Z,5
2023-05-17T07:00:16.187Z,4
2023-05-17T07:05:16.310Z,5
2023-05-17T07:10:19.103Z,5
2023-05-17T07:15:16.147Z,5
2023-05-17T07:20:19.150Z,3
2023-05-17T07:25:16.181Z,5
2023-05-17T07:30:16.144Z,3
2023-05-17T07:35:21.562Z,4
2023-05-17T07:40:19.108Z,4
2023-05-17T07:45:16.141Z,4
2023-05-17T07:50:19.164Z,4
2023-05-17T07:55:17.027Z,4
2023-05-17T08:00:19.158Z,4
2023-05-17T08:05:19.230Z,6
2023-05-17T08:10:19.144Z,4
2023-05-17T08:15:19.147Z,5
2023-05-17T08:20:19.145Z,5
2023-05-17T08:25:16.185Z,6
2023-05-17T08:30:25.374Z,5
2023-05-17T08:35:16.028Z,6
2023-05-17T08:40:16.226Z,5
2023-05-17T08:45:19.163Z,5
2023-05-17T08:50:19.134Z,6
2023-05-17T08:55:19.158Z,5
2023-05-17T09:00:19.108Z,5
2023-05-17T09:05:19.309Z,6
2023-05-17T09:10:19.188Z,5
2023-05-17T09:15:19.217Z,7
2023-05-17T09:20:19.230Z,4
2023-05-17T09:25:19.107Z,4
2023-05-17T09:30:19.166Z,4
2023-05-17T09:35:16.240Z,5
2023-05-17T09:40:19.332Z,5
2023-05-17T09:45:16.208Z,4
2023-05-17T09:50:16.188Z,6
2023-05-17T09:55:19.174Z,4
2023-05-17T10:00:19.169Z,5
2023-05-17T10:05:19.186Z,6
2023-05-17T10:10:19.215Z,7
2023-05-17T10:15:19.160Z,6
2023-05-17T10:20:19.304Z,7
2023-05-17T10:25:19.189Z,7
2023-05-17T10:30:19.218Z,6
2023-05-17T10:35:19.158Z,5
2023-05-17T10:40:19.200Z,7
2023-05-17T10:45:16.266Z,6
2023-05-17T10:50:19.225Z,5
2023-05-17T10:55:16.210Z,4
2023-05-17T11:00:19.310Z,4
2023-05-17T11:05:16.437Z,5
2023-05-17T11:10:19.224Z,5
2023-05-17T11:15:16.161Z,6
2023-05-17T11:20:19.337Z,5
2023-05-17T11:25:19.300Z,5
2023-05-17T11:30:19.220Z,5
2023-05-17T11:35:16.270Z,5
2023-05-17T11:40:16.266Z,7
2023-05-17T11:45:16.303Z,6
2023-05-17T11:50:16.297Z,5
2023-05-17T11:55:19.316Z,5
2023-05-17T12:00:19.232Z,6
2023-05-17T12:05:19.226Z,5
2023-05-17T12:10:19.289Z,6
2023-05-17T12:15:19.248Z,5
2023-05-17T12:20:19.349Z,8
2023-05-17T12:25:19.233Z,8
2023-05-17T12:30:19.284Z,6
2023-05-17T12:35:16.274Z,6
2023-05-17T12:40:19.288Z,5
2023-05-17T12:45:19.267Z,7
2023-05-17T12:50:16.277Z,6
2023-05-17T12:55:19.343Z,6
2023-05-17T13:00:19.308Z,8
2023-05-17T13:05:19.254Z,5
2023-05-17T13:10:16.340Z,7
2023-05-17T13:15:19.386Z,7
2023-05-17T13:20:19.398Z,7
2023-05-17T13:25:19.317Z,6
2023-05-17T13:30:19.369Z,7
2023-05-17T13:35:19.268Z,7
2023-05-17T13:40:19.304Z,6
2023-05-17T13:45:19.299Z,7
2023-05-17T13:50:19.321Z,8
2023-05-17T13:55:19.295Z,7
2023-05-17T14:00:19.321Z,5
2023-05-17T14:05:16.343Z,6
2023-05-17T14:10:19.360Z,6
2023-05-17T14:15:19.338Z,7
2023-05-17T14:20:16.511Z,7
2023-05-17T14:25:19.334Z,5
2023-05-17T14:30:19.269Z,5
2023-05-17T14:35:19.289Z,7
2023-05-17T14:40:19.324Z,4
2023-05-17T14:45:16.344Z,4
2023-05-17T14:50:19.312Z,5
2023-05-17T14:55:19.348Z,5
2023-05-17T15:00:16.443Z,5
2023-05-17T15:05:19.568Z,5
2023-05-17T15:10:19.332Z,8
2023-05-17T15:15:16.316Z,4
2023-05-17T15:20:19.448Z,6
2023-05-17T15:25:19.388Z,6
2023-05-17T15:30:19.325Z,7
2023-05-17T15:35:19.285Z,8
2023-05-17T15:40:19.353Z,7
2023-05-17T15:45:19.374Z,8
2023-05-17T15:50:16.297Z,10
2023-05-17T15:55:19.423Z,8
2023-05-17T16:00:19.348Z,8
2023-05-17T16:05:16.358Z,7
2023-05-17T16:10:19.384Z,5
2023-05-17T16:15:19.424Z,4
2023-05-17T16:20:19.348Z,5
2023-05-17T16:25:19.337Z,6
2023-05-17T16:30:16.231Z,7
2023-05-17T16:35:21.905Z,4
2023-05-17T16:40:19.414Z,5
2023-05-17T16:45:16.346Z,7
2023-05-17T16:50:19.411Z,8
2023-05-17T16:55:19.419Z,5
2023-05-17T17:00:19.678Z,7
2023-05-17T17:05:16.263Z,6
2023-05-17T17:10:16.487Z,5
2023-05-17T17:15:19.398Z,9
2023-05-17T17:20:19.375Z,7
2023-05-17T17:25:19.394Z,10
2023-05-17T17:30:19.567Z,8
2023-05-17T17:35:16.389Z,4
2023-05-17T17:40:19.599Z,8
2023-05-17T17:45:19.400Z,5
2023-05-17T17:50:19.396Z,6
2023-05-17T17:55:19.478Z,7
2023-05-17T18:00:16.458Z,8
2023-05-17T18:05:19.437Z,5
2023-05-17T18:10:16.465Z,5
2023-05-17T18:15:19.418Z,7
2023-05-17T18:20:19.432Z,7
2023-05-17T18:25:19.462Z,9
2023-05-17T18:30:19.437Z,6
2023-05-17T18:35:19.414Z,8
2023-05-17T18:40:19.432Z,9
2023-05-17T18:45:16.533Z,6
2023-05-17T18:50:19.470Z,5
2023-05-17T18:55:20.718Z,5
2023-05-17T19:00:19.460Z,8
2023-05-17T19:05:16.352Z,8
2023-05-17T19:10:19.387Z,8
2023-05-17T19:15:19.501Z,5
2023-05-17T19:20:19.445Z,6
2023-05-17T19:25:17.466Z,9
2023-05-17T19:30:19.523Z,7
2023-05-17T19:35:19.496Z,7
2023-05-17T19:40:16.498Z,6
2023-05-17T19:45:19.562Z,8
2023-05-17T19:50:19.463Z,7
2023-05-17T19:55:16.496Z,6
2023-05-17T20:00:19.491Z,6
2023-05-17T20:05:16.492Z,5
2023-05-17T20:10:19.444Z,7
2023-05-17T20:15:19.800Z,5
2023-05-17T20:20:19.439Z,5
2023-05-17T20:25:19.476Z,5
2023-05-17T20:30:19.482Z,8
2023-05-17T20:35:16.443Z,4
2023-05-17T20:40:20.235Z,9
2023-05-17T20:45:16.545Z,7
2023-05-17T20:50:21.454Z,6
2023-05-17T20:55:19.672Z,6
2023-05-17T21:00:16.532Z,7
2023-05-17T21:05:16.448Z,7
2023-05-17T21:10:16.523Z,4
2023-05-17T21:15:19.568Z,7
2023-05-17T21:20:20.435Z,6
2023-05-17T21:25:19.461Z,7
2023-05-17T21:30:19.551Z,6
2023-05-17T21:35:16.353Z,9
2023-05-17T21:40:16.570Z,5
2023-05-17T21:45:19.472Z,5
2023-05-17T21:50:19.479Z,7
2023-05-17T21:55:19.465Z,7
2023-05-17T22:00:19.474Z,6
2023-05-17T22:05:19.476Z,6
2023-05-17T22:10:19.441Z,6
2023-05-17T22:15:20.810Z,4
2023-05-17T22:20:19.542Z,9
2023-05-17T22:25:19.503Z,6
2023-05-17T22:30:19.519Z,8
2023-05-17T22:35:16.536Z,7
2023-05-17T22:40:16.644Z,7
2023-05-17T22:45:19.550Z,8
2023-05-17T22:50:19.512Z,7
2023-05-17T22:55:16.497Z,7
2023-05-17T23:00:16.517Z,7
2023-05-17T23:05:19.552Z,6
2023-05-17T23:10:19.475Z,6
2023-05-17T23:15:19.550Z,5
2023-05-17T23:20:16.577Z,5
2023-05-17T23:25:19.531Z,5
2023-05-17T23:30:19.498Z,7
2023-05-17T23:35:19.488Z,6
2023-05-17T23:40:19.570Z,5
2023-05-17T23:45:19.542Z,7
2023-05-17T23:50:19.589Z,7
2023-05-17T23:55:16.599Z,7
